sensor_id;sensor_type;location;lat;lon;timestamp;P1;durP1;ratioP1;P2;durP2;ratioP2
7150;SDS011;3617;48.836;9.172;2023-04-25T00:01:30;4.30;;;1.67;;
7150;SDS011;3617;48.836;9.172;2023-04-25T00:03:58;2.33;;;1.73;;
7150;SDS011;3617;48.836;9.172;2023-04-25T00:06:26;2.30;;;1.60;;
7150;SDS011;3617;48.836;9.172;2023-04-25T00:08:52;2.00;;;1.80;;
7150;SDS011;3617;48.836;9.172;2023-04-25T00:11:19;1.93;;;1.60;;
7150;SDS011;3617;48.836;9.172;2023-04-25T00:13:45;1.90;;;1.50;;
7150;SDS011;3617;48.836;9.172;2023-04-25T00:16:11;3.87;;;1.80;;
7150;SDS011;3617;48.836;9.172;2023-04-25T00:18:41;2.70;;;1.83;;
7150;SDS011;3617;48.836;9.172;2023-04-25T00:21:07;3.63;;;2.03;;
7150;SDS011;3617;48.836;9.172;2023-04-25T00:23:34;4.83;;;1.87;;
7150;SDS011;3617;48.836;9.172;2023-04-25T00:26:01;1.97;;;1.67;;
7150;SDS011;3617;48.836;9.172;2023-04-25T00:28:27;2.83;;;1.70;;
7150;SDS011;3617;48.836;9.172;2023-04-25T00:30:54;1.77;;;1.60;;
7150;SDS011;3617;48.836;9.172;2023-04-25T00:33:20;2.50;;;1.77;;
7150;SDS011;3617;48.836;9.172;2023-04-25T00:35:46;1.97;;;1.60;;
7150;SDS011;3617;48.836;9.172;2023-04-25T00:38:12;2.93;;;1.63;;
7150;SDS011;3617;48.836;9.172;2023-04-25T00:40:38;2.40;;;1.60;;
7150;SDS011;3617;48.836;9.172;2023-04-25T00:43:04;1.87;;;1.77;;
7150;SDS011;3617;48.836;9.172;2023-04-25T00:45:30;1.60;;;1.50;;
7150;SDS011;3617;48.836;9.172;2023-04-25T00:47:56;1.63;;;1.50;;
7150;SDS011;3617;48.836;9.172;2023-04-25T00:50:23;2.13;;;1.50;;
7150;SDS011;3617;48.836;9.172;2023-04-25T00:52:49;1.53;;;1.43;;
7150;SDS011;3617;48.836;9.172;2023-04-25T00:55:15;1.80;;;1.70;;
7150;SDS011;3617;48.836;9.172;2023-04-25T00:57:42;1.77;;;1.67;;
7150;SDS011;3617;48.836;9.172;2023-04-25T01:00:08;1.73;;;1.60;;
7150;SDS011;3617;48.836;9.172;2023-04-25T01:02:35;2.33;;;1.47;;
7150;SDS011;3617;48.836;9.172;2023-04-25T01:05:02;2.07;;;1.80;;
7150;SDS011;3617;48.836;9.172;2023-04-25T01:07:28;2.27;;;1.93;;
7150;SDS011;3617;48.836;9.172;2023-04-25T01:09:55;2.63;;;1.70;;
7150;SDS011;3617;48.836;9.172;2023-04-25T01:12:21;3.27;;;1.90;;
7150;SDS011;3617;48.836;9.172;2023-04-25T01:14:47;3.53;;;2.17;;
7150;SDS011;3617;48.836;9.172;2023-04-25T01:17:13;2.13;;;1.67;;
7150;SDS011;3617;48.836;9.172;2023-04-25T01:19:40;2.20;;;1.57;;
7150;SDS011;3617;48.836;9.172;2023-04-25T01:22:06;3.27;;;1.50;;
7150;SDS011;3617;48.836;9.172;2023-04-25T01:24:32;2.00;;;1.80;;
7150;SDS011;3617;48.836;9.172;2023-04-25T01:26:58;2.07;;;1.87;;
7150;SDS011;3617;48.836;9.172;2023-04-25T01:29:26;2.70;;;1.97;;
7150;SDS011;3617;48.836;9.172;2023-04-25T01:31:52;2.23;;;2.00;;
7150;SDS011;3617;48.836;9.172;2023-04-25T01:34:19;1.83;;;1.70;;
7150;SDS011;3617;48.836;9.172;2023-04-25T01:36:45;2.70;;;1.80;;
7150;SDS011;3617;48.836;9.172;2023-04-25T01:39:11;1.80;;;1.50;;
7150;SDS011;3617;48.836;9.172;2023-04-25T01:41:37;2.07;;;1.87;;
7150;SDS011;3617;48.836;9.172;2023-04-25T01:44:04;3.00;;;1.67;;
7150;SDS011;3617;48.836;9.172;2023-04-25T01:46:30;4.03;;;1.63;;
7150;SDS011;3617;48.836;9.172;2023-04-25T01:48:56;1.90;;;1.60;;
7150;SDS011;3617;48.836;9.172;2023-04-25T01:51:22;4.30;;;2.00;;
7150;SDS011;3617;48.836;9.172;2023-04-25T01:53:49;2.97;;;2.00;;
7150;SDS011;3617;48.836;9.172;2023-04-25T01:56:15;2.70;;;2.07;;
7150;SDS011;3617;48.836;9.172;2023-04-25T01:58:41;3.87;;;2.27;;
7150;SDS011;3617;48.836;9.172;2023-04-25T02:01:07;2.40;;;1.90;;
7150;SDS011;3617;48.836;9.172;2023-04-25T02:03:33;3.30;;;2.07;;
7150;SDS011;3617;48.836;9.172;2023-04-25T02:06:00;2.80;;;2.10;;
7150;SDS011;3617;48.836;9.172;2023-04-25T02:08:26;2.20;;;1.90;;
7150;SDS011;3617;48.836;9.172;2023-04-25T02:10:52;3.23;;;2.40;;
7150;SDS011;3617;48.836;9.172;2023-04-25T02:13:18;3.03;;;2.20;;
7150;SDS011;3617;48.836;9.172;2023-04-25T02:15:44;3.63;;;1.90;;
7150;SDS011;3617;48.836;9.172;2023-04-25T02:18:10;2.83;;;2.17;;
7150;SDS011;3617;48.836;9.172;2023-04-25T02:20:36;3.33;;;2.57;;
7150;SDS011;3617;48.836;9.172;2023-04-25T02:23:02;2.63;;;2.00;;
7150;SDS011;3617;48.836;9.172;2023-04-25T02:25:28;4.57;;;2.30;;
7150;SDS011;3617;48.836;9.172;2023-04-25T02:27:54;3.33;;;2.20;;
7150;SDS011;3617;48.836;9.172;2023-04-25T02:30:20;3.60;;;2.30;;
7150;SDS011;3617;48.836;9.172;2023-04-25T02:32:47;2.30;;;2.10;;
7150;SDS011;3617;48.836;9.172;2023-04-25T02:35:13;2.50;;;2.10;;
7150;SDS011;3617;48.836;9.172;2023-04-25T02:37:39;4.57;;;2.53;;
7150;SDS011;3617;48.836;9.172;2023-04-25T02:40:05;3.33;;;2.40;;
7150;SDS011;3617;48.836;9.172;2023-04-25T02:42:31;2.30;;;2.07;;
7150;SDS011;3617;48.836;9.172;2023-04-25T02:44:57;3.10;;;2.20;;
7150;SDS011;3617;48.836;9.172;2023-04-25T02:47:23;2.73;;;2.40;;
7150;SDS011;3617;48.836;9.172;2023-04-25T02:49:49;2.80;;;2.40;;
7150;SDS011;3617;48.836;9.172;2023-04-25T02:52:15;3.17;;;2.40;;
7150;SDS011;3617;48.836;9.172;2023-04-25T02:54:41;2.60;;;2.27;;
7150;SDS011;3617;48.836;9.172;2023-04-25T02:57:07;3.63;;;2.30;;
7150;SDS011;3617;48.836;9.172;2023-04-25T02:59:33;2.77;;;2.47;;
7150;SDS011;3617;48.836;9.172;2023-04-25T03:02:00;3.90;;;2.43;;
7150;SDS011;3617;48.836;9.172;2023-04-25T03:04:26;3.70;;;2.50;;
7150;SDS011;3617;48.836;9.172;2023-04-25T03:06:52;5.73;;;2.43;;
7150;SDS011;3617;48.836;9.172;2023-04-25T03:09:18;4.27;;;2.27;;
7150;SDS011;3617;48.836;9.172;2023-04-25T03:11:45;2.60;;;2.07;;
7150;SDS011;3617;48.836;9.172;2023-04-25T03:14:11;3.90;;;2.20;;
7150;SDS011;3617;48.836;9.172;2023-04-25T03:16:37;3.60;;;2.23;;
7150;SDS011;3617;48.836;9.172;2023-04-25T03:19:03;4.53;;;2.27;;
7150;SDS011;3617;48.836;9.172;2023-04-25T03:21:33;4.37;;;2.30;;
7150;SDS011;3617;48.836;9.172;2023-04-25T03:23:59;2.97;;;2.40;;
7150;SDS011;3617;48.836;9.172;2023-04-25T03:26:26;3.23;;;2.70;;
7150;SDS011;3617;48.836;9.172;2023-04-25T03:28:52;3.93;;;2.40;;
7150;SDS011;3617;48.836;9.172;2023-04-25T03:31:18;4.20;;;2.20;;
7150;SDS011;3617;48.836;9.172;2023-04-25T03:33:44;2.83;;;2.33;;
7150;SDS011;3617;48.836;9.172;2023-04-25T03:36:10;3.10;;;2.47;;
7150;SDS011;3617;48.836;9.172;2023-04-25T03:38:36;3.77;;;2.60;;
7150;SDS011;3617;48.836;9.172;2023-04-25T03:41:02;2.47;;;2.27;;
7150;SDS011;3617;48.836;9.172;2023-04-25T03:43:28;3.93;;;2.40;;
7150;SDS011;3617;48.836;9.172;2023-04-25T03:45:54;4.83;;;2.70;;
7150;SDS011;3617;48.836;9.172;2023-04-25T03:48:20;4.27;;;2.70;;
7150;SDS011;3617;48.836;9.172;2023-04-25T03:50:47;2.90;;;2.50;;
7150;SDS011;3617;48.836;9.172;2023-04-25T03:53:13;5.73;;;3.13;;
7150;SDS011;3617;48.836;9.172;2023-04-25T03:55:39;2.97;;;2.40;;
7150;SDS011;3617;48.836;9.172;2023-04-25T03:58:05;3.97;;;2.70;;
7150;SDS011;3617;48.836;9.172;2023-04-25T04:00:33;3.43;;;2.63;;
7150;SDS011;3617;48.836;9.172;2023-04-25T04:02:59;4.57;;;2.57;;
7150;SDS011;3617;48.836;9.172;2023-04-25T04:05:25;2.80;;;2.33;;
7150;SDS011;3617;48.836;9.172;2023-04-25T04:07:51;4.60;;;2.73;;
7150;SDS011;3617;48.836;9.172;2023-04-25T04:10:17;3.40;;;2.70;;
7150;SDS011;3617;48.836;9.172;2023-04-25T04:12:43;4.40;;;2.30;;
7150;SDS011;3617;48.836;9.172;2023-04-25T04:15:09;3.10;;;2.40;;
7150;SDS011;3617;48.836;9.172;2023-04-25T04:17:35;3.80;;;2.70;;
7150;SDS011;3617;48.836;9.172;2023-04-25T04:20:01;3.83;;;2.70;;
7150;SDS011;3617;48.836;9.172;2023-04-25T04:22:28;4.07;;;2.47;;
7150;SDS011;3617;48.836;9.172;2023-04-25T04:24:54;2.73;;;2.47;;
7150;SDS011;3617;48.836;9.172;2023-04-25T04:27:22;4.27;;;2.50;;
7150;SDS011;3617;48.836;9.172;2023-04-25T04:29:48;6.13;;;2.80;;
7150;SDS011;3617;48.836;9.172;2023-04-25T04:32:15;4.23;;;3.30;;
7150;SDS011;3617;48.836;9.172;2023-04-25T04:34:42;3.40;;;2.93;;
7150;SDS011;3617;48.836;9.172;2023-04-25T04:37:08;3.10;;;2.63;;
7150;SDS011;3617;48.836;9.172;2023-04-25T04:39:35;5.20;;;3.10;;
7150;SDS011;3617;48.836;9.172;2023-04-25T04:42:01;5.20;;;3.30;;
7150;SDS011;3617;48.836;9.172;2023-04-25T04:44:28;5.43;;;2.93;;
7150;SDS011;3617;48.836;9.172;2023-04-25T04:46:54;5.10;;;3.17;;
7150;SDS011;3617;48.836;9.172;2023-04-25T04:49:20;3.07;;;2.77;;
7150;SDS011;3617;48.836;9.172;2023-04-25T04:51:46;5.00;;;2.67;;
7150;SDS011;3617;48.836;9.172;2023-04-25T04:54:14;4.30;;;3.20;;
7150;SDS011;3617;48.836;9.172;2023-04-25T04:56:40;4.23;;;2.67;;
7150;SDS011;3617;48.836;9.172;2023-04-25T04:59:06;4.67;;;3.07;;
7150;SDS011;3617;48.836;9.172;2023-04-25T05:01:33;5.07;;;2.90;;
7150;SDS011;3617;48.836;9.172;2023-04-25T05:04:02;5.13;;;2.70;;
7150;SDS011;3617;48.836;9.172;2023-04-25T05:06:28;5.30;;;3.17;;
7150;SDS011;3617;48.836;9.172;2023-04-25T05:08:55;3.47;;;2.90;;
7150;SDS011;3617;48.836;9.172;2023-04-25T05:11:21;3.53;;;2.60;;
7150;SDS011;3617;48.836;9.172;2023-04-25T05:13:48;3.60;;;2.67;;
7150;SDS011;3617;48.836;9.172;2023-04-25T05:16:14;3.93;;;3.27;;
7150;SDS011;3617;48.836;9.172;2023-04-25T05:18:40;4.20;;;2.83;;
7150;SDS011;3617;48.836;9.172;2023-04-25T05:21:06;3.50;;;2.90;;
7150;SDS011;3617;48.836;9.172;2023-04-25T05:23:32;4.87;;;2.97;;
7150;SDS011;3617;48.836;9.172;2023-04-25T05:25:59;4.57;;;3.20;;
7150;SDS011;3617;48.836;9.172;2023-04-25T05:28:25;4.53;;;3.17;;
7150;SDS011;3617;48.836;9.172;2023-04-25T05:30:51;4.40;;;3.07;;
7150;SDS011;3617;48.836;9.172;2023-04-25T05:33:17;5.83;;;3.63;;
7150;SDS011;3617;48.836;9.172;2023-04-25T05:35:43;5.23;;;3.07;;
7150;SDS011;3617;48.836;9.172;2023-04-25T05:38:09;7.83;;;3.37;;
7150;SDS011;3617;48.836;9.172;2023-04-25T05:40:35;3.87;;;3.00;;
7150;SDS011;3617;48.836;9.172;2023-04-25T05:43:01;8.33;;;3.20;;
7150;SDS011;3617;48.836;9.172;2023-04-25T05:45:27;4.23;;;3.17;;
7150;SDS011;3617;48.836;9.172;2023-04-25T05:47:53;7.17;;;3.17;;
7150;SDS011;3617;48.836;9.172;2023-04-25T05:50:19;4.43;;;3.23;;
7150;SDS011;3617;48.836;9.172;2023-04-25T05:52:45;4.03;;;2.90;;
7150;SDS011;3617;48.836;9.172;2023-04-25T05:55:11;4.80;;;2.90;;
7150;SDS011;3617;48.836;9.172;2023-04-25T05:57:38;4.43;;;3.53;;
7150;SDS011;3617;48.836;9.172;2023-04-25T06:00:08;6.43;;;3.30;;
7150;SDS011;3617;48.836;9.172;2023-04-25T06:02:34;7.17;;;3.50;;
7150;SDS011;3617;48.836;9.172;2023-04-25T06:05:00;4.37;;;3.47;;
7150;SDS011;3617;48.836;9.172;2023-04-25T06:07:28;4.40;;;3.33;;
7150;SDS011;3617;48.836;9.172;2023-04-25T06:09:55;5.23;;;3.73;;
7150;SDS011;3617;48.836;9.172;2023-04-25T06:12:21;5.07;;;3.50;;
7150;SDS011;3617;48.836;9.172;2023-04-25T06:14:47;5.17;;;2.87;;
7150;SDS011;3617;48.836;9.172;2023-04-25T06:17:13;4.03;;;3.30;;
7150;SDS011;3617;48.836;9.172;2023-04-25T06:19:39;4.53;;;2.97;;
7150;SDS011;3617;48.836;9.172;2023-04-25T06:22:05;4.23;;;3.37;;
7150;SDS011;3617;48.836;9.172;2023-04-25T06:24:32;7.97;;;4.10;;
7150;SDS011;3617;48.836;9.172;2023-04-25T06:26:58;4.03;;;3.00;;
7150;SDS011;3617;48.836;9.172;2023-04-25T06:29:24;3.57;;;2.90;;
7150;SDS011;3617;48.836;9.172;2023-04-25T06:31:50;3.30;;;2.80;;
7150;SDS011;3617;48.836;9.172;2023-04-25T06:34:16;4.20;;;3.10;;
7150;SDS011;3617;48.836;9.172;2023-04-25T06:36:42;3.70;;;2.97;;
7150;SDS011;3617;48.836;9.172;2023-04-25T06:39:09;5.10;;;3.60;;
7150;SDS011;3617;48.836;9.172;2023-04-25T06:41:35;4.60;;;2.63;;
7150;SDS011;3617;48.836;9.172;2023-04-25T06:44:01;4.33;;;2.77;;
7150;SDS011;3617;48.836;9.172;2023-04-25T06:46:27;3.37;;;2.83;;
7150;SDS011;3617;48.836;9.172;2023-04-25T06:48:53;3.83;;;2.80;;
7150;SDS011;3617;48.836;9.172;2023-04-25T06:51:19;3.83;;;2.73;;
7150;SDS011;3617;48.836;9.172;2023-04-25T06:53:46;3.27;;;2.70;;
7150;SDS011;3617;48.836;9.172;2023-04-25T06:56:12;3.20;;;2.70;;
7150;SDS011;3617;48.836;9.172;2023-04-25T06:58:38;3.33;;;2.70;;
7150;SDS011;3617;48.836;9.172;2023-04-25T07:01:04;3.97;;;2.80;;
7150;SDS011;3617;48.836;9.172;2023-04-25T07:03:30;3.80;;;3.00;;
7150;SDS011;3617;48.836;9.172;2023-04-25T07:05:56;3.53;;;3.00;;
7150;SDS011;3617;48.836;9.172;2023-04-25T07:08:22;4.97;;;3.20;;
7150;SDS011;3617;48.836;9.172;2023-04-25T07:10:48;4.83;;;2.87;;
7150;SDS011;3617;48.836;9.172;2023-04-25T07:13:14;3.80;;;2.93;;
7150;SDS011;3617;48.836;9.172;2023-04-25T07:15:40;4.17;;;3.17;;
7150;SDS011;3617;48.836;9.172;2023-04-25T07:18:07;3.90;;;2.73;;
7150;SDS011;3617;48.836;9.172;2023-04-25T07:20:33;6.10;;;2.63;;
7150;SDS011;3617;48.836;9.172;2023-04-25T07:22:59;4.10;;;3.23;;
7150;SDS011;3617;48.836;9.172;2023-04-25T07:25:25;5.53;;;3.20;;
7150;SDS011;3617;48.836;9.172;2023-04-25T07:27:51;5.10;;;3.50;;
7150;SDS011;3617;48.836;9.172;2023-04-25T07:30:17;4.37;;;3.47;;
7150;SDS011;3617;48.836;9.172;2023-04-25T07:32:43;4.03;;;3.50;;
7150;SDS011;3617;48.836;9.172;2023-04-25T07:35:10;4.27;;;3.00;;
7150;SDS011;3617;48.836;9.172;2023-04-25T07:37:36;4.70;;;3.27;;
7150;SDS011;3617;48.836;9.172;2023-04-25T07:40:02;3.37;;;2.73;;
7150;SDS011;3617;48.836;9.172;2023-04-25T07:42:29;4.63;;;3.43;;
7150;SDS011;3617;48.836;9.172;2023-04-25T07:44:55;5.87;;;3.73;;
7150;SDS011;3617;48.836;9.172;2023-04-25T07:47:20;4.40;;;3.40;;
7150;SDS011;3617;48.836;9.172;2023-04-25T07:49:47;5.07;;;3.33;;
7150;SDS011;3617;48.836;9.172;2023-04-25T07:52:13;6.60;;;3.40;;
7150;SDS011;3617;48.836;9.172;2023-04-25T07:54:39;4.17;;;3.30;;
7150;SDS011;3617;48.836;9.172;2023-04-25T07:57:05;4.90;;;3.33;;
7150;SDS011;3617;48.836;9.172;2023-04-25T07:59:31;4.50;;;3.40;;
7150;SDS011;3617;48.836;9.172;2023-04-25T08:01:57;5.30;;;3.57;;
7150;SDS011;3617;48.836;9.172;2023-04-25T08:04:23;4.87;;;3.60;;
7150;SDS011;3617;48.836;9.172;2023-04-25T08:06:50;4.93;;;3.77;;
7150;SDS011;3617;48.836;9.172;2023-04-25T08:09:17;5.17;;;3.70;;
7150;SDS011;3617;48.836;9.172;2023-04-25T08:11:43;7.67;;;3.90;;
7150;SDS011;3617;48.836;9.172;2023-04-25T08:14:09;5.40;;;3.70;;
7150;SDS011;3617;48.836;9.172;2023-04-25T08:16:35;6.93;;;3.83;;
7150;SDS011;3617;48.836;9.172;2023-04-25T08:19:01;4.57;;;3.57;;
7150;SDS011;3617;48.836;9.172;2023-04-25T08:21:28;5.80;;;3.70;;
7150;SDS011;3617;48.836;9.172;2023-04-25T08:23:54;4.13;;;3.33;;
7150;SDS011;3617;48.836;9.172;2023-04-25T08:26:20;7.37;;;3.50;;
7150;SDS011;3617;48.836;9.172;2023-04-25T08:28:46;6.47;;;3.17;;
7150;SDS011;3617;48.836;9.172;2023-04-25T08:31:12;4.13;;;3.30;;
7150;SDS011;3617;48.836;9.172;2023-04-25T08:33:38;5.33;;;3.40;;
7150;SDS011;3617;48.836;9.172;2023-04-25T08:36:04;5.30;;;3.53;;
7150;SDS011;3617;48.836;9.172;2023-04-25T08:38:30;5.10;;;3.43;;
7150;SDS011;3617;48.836;9.172;2023-04-25T08:40:56;7.77;;;4.20;;
7150;SDS011;3617;48.836;9.172;2023-04-25T08:43:25;4.83;;;3.60;;
7150;SDS011;3617;48.836;9.172;2023-04-25T08:45:52;5.53;;;3.83;;
7150;SDS011;3617;48.836;9.172;2023-04-25T08:48:19;5.90;;;4.17;;
7150;SDS011;3617;48.836;9.172;2023-04-25T08:50:51;11.27;;;4.07;;
7150;SDS011;3617;48.836;9.172;2023-04-25T08:53:17;5.77;;;3.70;;
7150;SDS011;3617;48.836;9.172;2023-04-25T08:55:47;9.10;;;3.77;;
7150;SDS011;3617;48.836;9.172;2023-04-25T08:58:14;5.73;;;3.57;;
7150;SDS011;3617;48.836;9.172;2023-04-25T09:00:40;5.53;;;4.00;;
7150;SDS011;3617;48.836;9.172;2023-04-25T09:03:06;9.27;;;3.63;;
7150;SDS011;3617;48.836;9.172;2023-04-25T09:05:33;5.90;;;4.10;;
7150;SDS011;3617;48.836;9.172;2023-04-25T09:08:00;8.73;;;4.40;;
7150;SDS011;3617;48.836;9.172;2023-04-25T09:10:27;8.27;;;5.13;;
7150;SDS011;3617;48.836;9.172;2023-04-25T09:13:06;6.73;;;4.63;;
7150;SDS011;3617;48.836;9.172;2023-04-25T09:15:33;9.40;;;4.50;;
7150;SDS011;3617;48.836;9.172;2023-04-25T09:18:12;5.17;;;4.17;;
7150;SDS011;3617;48.836;9.172;2023-04-25T09:20:41;6.50;;;4.30;;
7150;SDS011;3617;48.836;9.172;2023-04-25T09:23:12;5.63;;;3.77;;
7150;SDS011;3617;48.836;9.172;2023-04-25T09:25:38;7.73;;;4.90;;
7150;SDS011;3617;48.836;9.172;2023-04-25T09:28:04;6.40;;;4.27;;
7150;SDS011;3617;48.836;9.172;2023-04-25T09:30:31;7.30;;;4.53;;
7150;SDS011;3617;48.836;9.172;2023-04-25T09:33:03;8.37;;;4.70;;
7150;SDS011;3617;48.836;9.172;2023-04-25T09:35:30;7.73;;;4.90;;
7150;SDS011;3617;48.836;9.172;2023-04-25T09:38:01;10.27;;;4.10;;
7150;SDS011;3617;48.836;9.172;2023-04-25T09:40:28;11.73;;;4.50;;
7150;SDS011;3617;48.836;9.172;2023-04-25T09:42:55;8.90;;;4.13;;
7150;SDS011;3617;48.836;9.172;2023-04-25T09:45:22;5.87;;;4.13;;
7150;SDS011;3617;48.836;9.172;2023-04-25T09:47:48;5.37;;;3.97;;
7150;SDS011;3617;48.836;9.172;2023-04-25T09:50:16;8.77;;;4.37;;
7150;SDS011;3617;48.836;9.172;2023-04-25T09:52:43;5.73;;;4.10;;
7150;SDS011;3617;48.836;9.172;2023-04-25T09:55:10;7.53;;;4.87;;
7150;SDS011;3617;48.836;9.172;2023-04-25T09:57:36;5.23;;;3.87;;
7150;SDS011;3617;48.836;9.172;2023-04-25T10:00:05;7.70;;;3.93;;
7150;SDS011;3617;48.836;9.172;2023-04-25T10:02:34;5.77;;;4.17;;
7150;SDS011;3617;48.836;9.172;2023-04-25T10:05:01;5.63;;;4.17;;
7150;SDS011;3617;48.836;9.172;2023-04-25T10:07:29;7.10;;;4.30;;
7150;SDS011;3617;48.836;9.172;2023-04-25T10:10:00;7.07;;;4.20;;
7150;SDS011;3617;48.836;9.172;2023-04-25T10:12:27;7.83;;;4.67;;
7150;SDS011;3617;48.836;9.172;2023-04-25T10:14:54;5.83;;;3.50;;
7150;SDS011;3617;48.836;9.172;2023-04-25T10:17:20;4.43;;;3.17;;
7150;SDS011;3617;48.836;9.172;2023-04-25T10:19:49;4.87;;;3.43;;
7150;SDS011;3617;48.836;9.172;2023-04-25T10:22:29;5.80;;;3.47;;
7150;SDS011;3617;48.836;9.172;2023-04-25T10:24:57;5.17;;;2.30;;
7150;SDS011;3617;48.836;9.172;2023-04-25T10:27:23;2.67;;;2.07;;
7150;SDS011;3617;48.836;9.172;2023-04-25T10:30:08;3.77;;;2.40;;
7150;SDS011;3617;48.836;9.172;2023-04-25T10:32:39;2.50;;;2.10;;
7150;SDS011;3617;48.836;9.172;2023-04-25T10:35:11;3.27;;;2.37;;
7150;SDS011;3617;48.836;9.172;2023-04-25T10:37:38;3.50;;;2.70;;
7150;SDS011;3617;48.836;9.172;2023-04-25T10:40:10;16.30;;;4.30;;
7150;SDS011;3617;48.836;9.172;2023-04-25T10:42:36;4.37;;;3.70;;
7150;SDS011;3617;48.836;9.172;2023-04-25T10:45:04;8.57;;;3.63;;
7150;SDS011;3617;48.836;9.172;2023-04-25T10:47:36;6.57;;;4.20;;
7150;SDS011;3617;48.836;9.172;2023-04-25T10:50:09;6.40;;;3.87;;
7150;SDS011;3617;48.836;9.172;2023-04-25T10:52:36;4.80;;;3.27;;
7150;SDS011;3617;48.836;9.172;2023-04-25T10:55:05;6.07;;;3.70;;
7150;SDS011;3617;48.836;9.172;2023-04-25T10:57:40;6.53;;;3.63;;
7150;SDS011;3617;48.836;9.172;2023-04-25T11:00:25;5.50;;;3.63;;
7150;SDS011;3617;48.836;9.172;2023-04-25T11:02:55;5.77;;;3.33;;
7150;SDS011;3617;48.836;9.172;2023-04-25T11:05:31;6.23;;;3.10;;
7150;SDS011;3617;48.836;9.172;2023-04-25T11:07:57;6.47;;;3.37;;
7150;SDS011;3617;48.836;9.172;2023-04-25T11:10:27;7.27;;;3.47;;
7150;SDS011;3617;48.836;9.172;2023-04-25T11:12:54;4.63;;;3.70;;
7150;SDS011;3617;48.836;9.172;2023-04-25T11:15:20;5.97;;;3.57;;
7150;SDS011;3617;48.836;9.172;2023-04-25T11:17:46;4.43;;;3.40;;
7150;SDS011;3617;48.836;9.172;2023-04-25T11:20:12;5.67;;;3.87;;
7150;SDS011;3617;48.836;9.172;2023-04-25T11:22:40;6.03;;;4.10;;
7150;SDS011;3617;48.836;9.172;2023-04-25T11:25:10;7.33;;;3.50;;
7150;SDS011;3617;48.836;9.172;2023-04-25T11:27:52;4.20;;;3.13;;
7150;SDS011;3617;48.836;9.172;2023-04-25T11:30:18;3.83;;;2.80;;
7150;SDS011;3617;48.836;9.172;2023-04-25T11:32:44;6.93;;;3.23;;
7150;SDS011;3617;48.836;9.172;2023-04-25T11:35:10;4.30;;;2.90;;
7150;SDS011;3617;48.836;9.172;2023-04-25T11:37:38;3.73;;;2.73;;
7150;SDS011;3617;48.836;9.172;2023-04-25T11:40:05;4.37;;;3.13;;
7150;SDS011;3617;48.836;9.172;2023-04-25T11:42:32;3.90;;;3.13;;
7150;SDS011;3617;48.836;9.172;2023-04-25T11:44:58;4.17;;;3.17;;
7150;SDS011;3617;48.836;9.172;2023-04-25T11:47:31;5.13;;;3.07;;
7150;SDS011;3617;48.836;9.172;2023-04-25T11:49:58;4.10;;;3.00;;
7150;SDS011;3617;48.836;9.172;2023-04-25T11:52:24;10.07;;;4.07;;
7150;SDS011;3617;48.836;9.172;2023-04-25T11:54:50;5.43;;;3.80;;
7150;SDS011;3617;48.836;9.172;2023-04-25T11:57:18;5.40;;;3.10;;
7150;SDS011;3617;48.836;9.172;2023-04-25T11:59:45;7.43;;;3.30;;
7150;SDS011;3617;48.836;9.172;2023-04-25T12:02:23;6.07;;;4.17;;
7150;SDS011;3617;48.836;9.172;2023-04-25T12:04:49;4.63;;;3.27;;
7150;SDS011;3617;48.836;9.172;2023-04-25T12:07:15;5.10;;;3.97;;
7150;SDS011;3617;48.836;9.172;2023-04-25T12:09:41;5.70;;;3.83;;
7150;SDS011;3617;48.836;9.172;2023-04-25T12:12:09;7.37;;;4.33;;
7150;SDS011;3617;48.836;9.172;2023-04-25T12:14:35;6.80;;;3.93;;
7150;SDS011;3617;48.836;9.172;2023-04-25T12:17:02;6.00;;;4.07;;
7150;SDS011;3617;48.836;9.172;2023-04-25T12:19:32;5.97;;;3.90;;
7150;SDS011;3617;48.836;9.172;2023-04-25T12:21:59;11.60;;;4.63;;
7150;SDS011;3617;48.836;9.172;2023-04-25T12:24:26;6.20;;;4.10;;
7150;SDS011;3617;48.836;9.172;2023-04-25T12:27:05;6.90;;;4.13;;
7150;SDS011;3617;48.836;9.172;2023-04-25T12:29:33;13.73;;;5.37;;
7150;SDS011;3617;48.836;9.172;2023-04-25T12:31:59;8.33;;;5.20;;
7150;SDS011;3617;48.836;9.172;2023-04-25T12:34:26;8.80;;;5.23;;
7150;SDS011;3617;48.836;9.172;2023-04-25T12:36:53;8.10;;;5.10;;
7150;SDS011;3617;48.836;9.172;2023-04-25T12:39:20;9.53;;;5.93;;
7150;SDS011;3617;48.836;9.172;2023-04-25T12:41:50;10.73;;;5.50;;
7150;SDS011;3617;48.836;9.172;2023-04-25T12:44:18;12.97;;;5.93;;
7150;SDS011;3617;48.836;9.172;2023-04-25T12:46:44;11.37;;;5.20;;
7150;SDS011;3617;48.836;9.172;2023-04-25T12:49:10;7.30;;;4.90;;
7150;SDS011;3617;48.836;9.172;2023-04-25T12:51:36;9.50;;;5.87;;
7150;SDS011;3617;48.836;9.172;2023-04-25T12:54:03;12.20;;;5.73;;
7150;SDS011;3617;48.836;9.172;2023-04-25T12:56:30;8.07;;;5.13;;
7150;SDS011;3617;48.836;9.172;2023-04-25T12:58:56;10.33;;;5.20;;
7150;SDS011;3617;48.836;9.172;2023-04-25T13:01:23;11.17;;;6.30;;
7150;SDS011;3617;48.836;9.172;2023-04-25T13:03:49;10.97;;;5.97;;
7150;SDS011;3617;48.836;9.172;2023-04-25T13:06:16;6.57;;;4.67;;
7150;SDS011;3617;48.836;9.172;2023-04-25T13:08:42;9.53;;;5.43;;
7150;SDS011;3617;48.836;9.172;2023-04-25T13:11:08;9.90;;;5.47;;
7150;SDS011;3617;48.836;9.172;2023-04-25T13:13:35;8.17;;;4.87;;
7150;SDS011;3617;48.836;9.172;2023-04-25T13:16:01;7.00;;;5.20;;
7150;SDS011;3617;48.836;9.172;2023-04-25T13:18:28;7.73;;;5.40;;
7150;SDS011;3617;48.836;9.172;2023-04-25T13:20:54;8.50;;;5.80;;
7150;SDS011;3617;48.836;9.172;2023-04-25T13:23:20;8.83;;;5.83;;
7150;SDS011;3617;48.836;9.172;2023-04-25T13:25:46;8.90;;;5.80;;
7150;SDS011;3617;48.836;9.172;2023-04-25T13:28:12;8.97;;;5.77;;
7150;SDS011;3617;48.836;9.172;2023-04-25T13:30:38;10.57;;;6.63;;
7150;SDS011;3617;48.836;9.172;2023-04-25T13:33:04;8.57;;;6.00;;
7150;SDS011;3617;48.836;9.172;2023-04-25T13:35:31;10.90;;;6.90;;
7150;SDS011;3617;48.836;9.172;2023-04-25T13:37:57;10.23;;;6.73;;
7150;SDS011;3617;48.836;9.172;2023-04-25T13:40:23;12.33;;;7.03;;
7150;SDS011;3617;48.836;9.172;2023-04-25T13:42:49;11.23;;;7.07;;
7150;SDS011;3617;48.836;9.172;2023-04-25T13:45:16;10.13;;;7.10;;
7150;SDS011;3617;48.836;9.172;2023-04-25T13:47:42;11.17;;;6.90;;
7150;SDS011;3617;48.836;9.172;2023-04-25T13:50:08;11.03;;;6.87;;
7150;SDS011;3617;48.836;9.172;2023-04-25T13:52:34;10.97;;;7.27;;
7150;SDS011;3617;48.836;9.172;2023-04-25T13:55:00;11.27;;;7.23;;
7150;SDS011;3617;48.836;9.172;2023-04-25T13:57:28;10.73;;;6.93;;
7150;SDS011;3617;48.836;9.172;2023-04-25T13:59:55;8.67;;;6.00;;
7150;SDS011;3617;48.836;9.172;2023-04-25T14:02:21;11.10;;;6.13;;
7150;SDS011;3617;48.836;9.172;2023-04-25T14:04:47;8.10;;;5.13;;
7150;SDS011;3617;48.836;9.172;2023-04-25T14:07:13;8.27;;;4.90;;
7150;SDS011;3617;48.836;9.172;2023-04-25T14:09:42;7.80;;;5.57;;
7150;SDS011;3617;48.836;9.172;2023-04-25T14:12:08;10.80;;;5.70;;
7150;SDS011;3617;48.836;9.172;2023-04-25T14:14:35;8.37;;;5.20;;
7150;SDS011;3617;48.836;9.172;2023-04-25T14:17:01;7.10;;;5.13;;
7150;SDS011;3617;48.836;9.172;2023-04-25T14:19:27;7.93;;;4.63;;
7150;SDS011;3617;48.836;9.172;2023-04-25T14:21:53;8.60;;;4.93;;
7150;SDS011;3617;48.836;9.172;2023-04-25T14:24:19;7.53;;;4.90;;
7150;SDS011;3617;48.836;9.172;2023-04-25T14:26:46;7.63;;;4.93;;
7150;SDS011;3617;48.836;9.172;2023-04-25T14:29:11;6.23;;;4.83;;
7150;SDS011;3617;48.836;9.172;2023-04-25T14:31:38;7.73;;;5.07;;
7150;SDS011;3617;48.836;9.172;2023-04-25T14:34:05;7.53;;;4.67;;
7150;SDS011;3617;48.836;9.172;2023-04-25T14:36:31;5.67;;;4.53;;
7150;SDS011;3617;48.836;9.172;2023-04-25T14:38:58;6.57;;;3.80;;
7150;SDS011;3617;48.836;9.172;2023-04-25T14:41:24;8.47;;;4.90;;
7150;SDS011;3617;48.836;9.172;2023-04-25T14:43:50;6.43;;;4.50;;
7150;SDS011;3617;48.836;9.172;2023-04-25T14:46:17;5.97;;;4.33;;
7150;SDS011;3617;48.836;9.172;2023-04-25T14:48:43;5.77;;;4.30;;
7150;SDS011;3617;48.836;9.172;2023-04-25T14:51:10;7.20;;;4.57;;
7150;SDS011;3617;48.836;9.172;2023-04-25T14:53:36;11.30;;;5.00;;
7150;SDS011;3617;48.836;9.172;2023-04-25T14:56:02;9.13;;;4.63;;
7150;SDS011;3617;48.836;9.172;2023-04-25T14:58:28;6.93;;;4.53;;
7150;SDS011;3617;48.836;9.172;2023-04-25T15:00:54;9.07;;;4.83;;
7150;SDS011;3617;48.836;9.172;2023-04-25T15:03:20;7.20;;;4.70;;
7150;SDS011;3617;48.836;9.172;2023-04-25T15:05:46;6.90;;;4.30;;
7150;SDS011;3617;48.836;9.172;2023-04-25T15:08:12;4.90;;;4.03;;
7150;SDS011;3617;48.836;9.172;2023-04-25T15:10:38;6.73;;;3.80;;
7150;SDS011;3617;48.836;9.172;2023-04-25T15:13:04;5.20;;;3.83;;